createdAt,value
2023-05-02T00:00:32.156Z,6.28
2023-05-02T00:05:53.668Z,6.50
2023-05-02T00:10:59.277Z,6.65
2023-05-02T00:16:03.573Z,6.63
2023-05-02T00:21:07.891Z,6.00
2023-05-02T00:26:13.540Z,7.65
2023-05-02T00:31:20.067Z,8.73
2023-05-02T00:36:24.699Z,21.70
2023-05-02T00:41:30.279Z,7.63
2023-05-02T00:46:34.787Z,7.63
2023-05-02T00:51:39.516Z,7.28
2023-05-02T00:56:45.470Z,6.95
2023-05-02T01:02:01.978Z,7.68
2023-05-02T01:07:24.092Z,6.53
2023-05-02T01:12:37.696Z,6.82
2023-05-02T01:17:44.541Z,7.78
2023-05-02T01:22:50.276Z,7.30
2023-05-02T01:28:10.981Z,6.70
2023-05-02T01:33:19.462Z,7.60
2023-05-02T01:38:25.672Z,7.72
2023-05-02T01:43:30.825Z,7.38
2023-05-02T01:48:37.886Z,6.97
2023-05-02T01:53:43.620Z,6.90
2023-05-02T01:58:50.095Z,6.97
2023-05-02T02:03:56.333Z,6.45
2023-05-02T02:09:01.343Z,6.43
2023-05-02T02:14:08.989Z,6.65
2023-05-02T02:19:16.777Z,5.90
2023-05-02T02:24:24.097Z,6.13
2023-05-02T02:29:28.558Z,5.90
2023-05-02T02:34:34.235Z,6.50
2023-05-02T02:39:51.730Z,5.20
2023-05-02T02:45:03.108Z,5.80
2023-05-02T02:50:18.165Z,5.90
2023-05-02T02:55:32.461Z,5.50
2023-05-02T03:00:37.961Z,5.47
2023-05-02T03:05:45.118Z,4.93
2023-05-02T03:10:49.724Z,5.60
2023-05-02T03:16:27.620Z,5.03
2023-05-02T03:21:34.091Z,4.75
2023-05-02T03:26:44.488Z,5.55
2023-05-02T03:31:51.238Z,5.20
2023-05-02T03:36:58.094Z,4.93
2023-05-02T03:42:03.452Z,4.85
2023-05-02T03:47:08.089Z,3.85
2023-05-02T03:52:18.834Z,4.70
2023-05-02T03:57:24.440Z,4.53
2023-05-02T04:02:29.630Z,4.78
2023-05-02T04:07:36.606Z,5.03
2023-05-02T04:12:43.714Z,5.00
2023-05-02T04:17:49.011Z,5.18
2023-05-02T04:22:55.951Z,4.90
2023-05-02T04:28:00.571Z,5.47
2023-05-02T04:33:05.035Z,5.82
2023-05-02T04:38:16.014Z,4.85
2023-05-02T04:43:23.879Z,4.38
2023-05-02T04:48:35.125Z,4.20
2023-05-02T04:53:40.972Z,4.25
2023-05-02T04:58:45.178Z,4.75
2023-05-02T05:03:50.514Z,4.97
2023-05-02T05:08:57.287Z,4.35
2023-05-02T05:14:01.532Z,4.25
2023-05-02T05:19:06.622Z,4.90
2023-05-02T05:24:13.147Z,4.25
2023-05-02T05:29:18.502Z,4.50
2023-05-02T05:34:23.017Z,4.22
2023-05-02T05:39:30.393Z,5.88
2023-05-02T05:44:37.404Z,4.53
2023-05-02T05:49:42.902Z,5.07
2023-05-02T05:54:49.546Z,4.97
2023-05-02T05:59:53.823Z,5.28
2023-05-02T06:04:58.472Z,3.75
2023-05-02T06:10:05.022Z,4.57
2023-05-02T06:15:12.410Z,4.22
2023-05-02T06:20:18.768Z,4.30
2023-05-02T06:25:24.586Z,3.20
2023-05-02T06:30:28.770Z,3.58
2023-05-02T06:35:32.933Z,3.08
2023-05-02T06:40:45.345Z,3.13
2023-05-02T06:45:49.523Z,2.30
2023-05-02T06:50:54.453Z,3.08
2023-05-02T06:56:00.566Z,3.67
2023-05-02T07:01:04.996Z,2.60
2023-05-02T07:06:09.343Z,3.03
2023-05-02T07:11:15.140Z,2.85
2023-05-02T07:16:19.482Z,3.15
2023-05-02T07:21:23.669Z,2.42
2023-05-02T07:26:29.755Z,3.47
2023-05-02T07:31:34.500Z,2.40
2023-05-02T07:36:39.168Z,2.65
2023-05-02T07:41:44.968Z,2.78
2023-05-02T07:46:49.564Z,1.90
2023-05-02T07:51:54.102Z,2.10
2023-05-02T07:57:03.078Z,2.03
2023-05-02T08:02:07.372Z,1.57
2023-05-02T08:07:12.072Z,2.08
2023-05-02T08:12:17.619Z,2.10
2023-05-02T08:17:22.289Z,2.03
2023-05-02T08:22:26.610Z,1.95
2023-05-02T08:27:32.187Z,2.20
2023-05-02T08:32:38.300Z,1.90
2023-05-02T08:37:42.481Z,2.05
2023-05-02T08:42:48.552Z,2.15
2023-05-02T08:47:54.122Z,1.75
2023-05-02T08:52:59.534Z,2.00
2023-05-02T08:58:05.664Z,2.83
2023-05-02T09:03:22.006Z,2.03
2023-05-02T09:08:28.088Z,2.28
2023-05-02T09:13:38.262Z,2.75
2023-05-02T09:18:44.558Z,2.05
2023-05-02T09:23:50.105Z,2.45
2023-05-02T09:28:57.334Z,2.70
2023-05-02T09:34:10.809Z,2.67
2023-05-02T09:39:16.486Z,2.70
2023-05-02T09:44:25.030Z,2.53
2023-05-02T09:49:47.350Z,4.50
2023-05-02T09:54:53.000Z,4.80
2023-05-02T09:59:59.710Z,4.97
2023-05-02T10:05:05.815Z,3.40
2023-05-02T10:10:16.031Z,13.80
2023-05-02T10:15:24.599Z,5.18
2023-05-02T10:20:33.839Z,4.88
2023-05-02T10:25:38.101Z,5.78
2023-05-02T10:30:44.304Z,6.75
2023-05-02T10:35:49.154Z,4.50
2023-05-02T10:40:57.385Z,14.55
2023-05-02T10:46:03.722Z,26.50
2023-05-02T10:51:14.325Z,5.32
2023-05-02T10:56:21.653Z,4.68
2023-05-02T11:01:41.982Z,5.68
2023-05-02T11:07:20.366Z,13.57
2023-05-02T11:12:46.792Z,12.85
2023-05-02T11:18:07.952Z,4.50
2023-05-02T11:23:25.527Z,7.68
2023-05-02T11:28:44.815Z,4.78
2023-05-02T11:33:57.949Z,5.05
2023-05-02T11:39:02.916Z,13.00
2023-05-02T11:44:07.472Z,6.93
2023-05-02T11:49:15.156Z,8.10
2023-05-02T11:54:23.167Z,19.65
2023-05-02T11:59:27.539Z,6.47
2023-05-02T12:04:33.397Z,5.18
2023-05-02T12:09:37.675Z,5.05
2023-05-02T12:14:41.835Z,5.40
2023-05-02T12:19:49.041Z,11.60
2023-05-02T12:24:54.431Z,9.07
2023-05-02T12:29:58.933Z,8.50
2023-05-02T12:35:05.060Z,4.53
2023-05-02T12:40:17.927Z,11.25
2023-05-02T12:45:22.041Z,6.43
2023-05-02T12:50:39.049Z,3.15
2023-05-02T12:55:43.414Z,3.13
2023-05-02T13:00:47.936Z,9.40
2023-05-02T13:05:57.039Z,6.07
2023-05-02T13:11:01.385Z,6.13
2023-05-02T13:16:05.631Z,10.15
2023-05-02T13:21:11.441Z,6.68
2023-05-02T13:26:15.589Z,2.58
2023-05-02T13:31:19.916Z,3.40
2023-05-02T13:36:26.340Z,8.38
2023-05-02T13:41:30.772Z,6.15
2023-05-02T13:46:37.822Z,8.00
2023-05-02T13:51:43.777Z,5.10
2023-05-02T13:56:48.044Z,5.30
2023-05-02T14:01:54.015Z,3.45
2023-05-02T14:06:59.775Z,4.88
2023-05-02T14:12:03.850Z,4.00
2023-05-02T14:17:08.244Z,5.78
2023-05-02T14:22:13.967Z,4.85
2023-05-02T14:27:19.275Z,1.95
2023-05-02T14:32:23.403Z,4.65
2023-05-02T14:37:28.913Z,2.40
2023-05-02T14:42:33.247Z,2.67
2023-05-02T14:47:37.830Z,6.65
2023-05-02T14:52:43.465Z,2.72
2023-05-02T14:57:47.565Z,23.17
2023-05-02T15:02:52.040Z,21.83
2023-05-02T15:07:57.756Z,6.25
2023-05-02T15:13:02.306Z,6.00
2023-05-02T15:18:06.945Z,5.80
2023-05-02T15:23:13.003Z,5.45
2023-05-02T15:28:17.370Z,4.40
2023-05-02T15:33:21.711Z,4.00
2023-05-02T15:38:27.534Z,4.35
2023-05-02T15:43:32.275Z,3.13
2023-05-02T15:48:36.657Z,6.80
2023-05-02T15:53:44.573Z,5.65
2023-05-02T15:58:48.728Z,8.75
2023-05-02T16:03:53.146Z,6.13
2023-05-02T16:08:58.969Z,5.85
2023-05-02T16:14:03.274Z,6.40
2023-05-02T16:19:12.805Z,3.45
2023-05-02T16:24:18.434Z,2.72
2023-05-02T16:29:22.528Z,3.90
2023-05-02T16:34:27.004Z,3.00
2023-05-02T16:39:32.971Z,4.95
2023-05-02T16:44:37.298Z,6.18
2023-05-02T16:49:41.900Z,5.80
2023-05-02T16:54:47.664Z,4.88
2023-05-02T16:59:53.029Z,6.28
2023-05-02T17:04:57.145Z,7.03
2023-05-02T17:10:04.771Z,5.95
2023-05-02T17:15:10.043Z,6.80
2023-05-02T17:20:14.397Z,6.30
2023-05-02T17:25:20.129Z,7.53
2023-05-02T17:30:25.470Z,14.32
2023-05-02T17:35:29.613Z,7.85
2023-05-02T17:40:36.085Z,6.00
2023-05-02T17:45:42.167Z,9.57
2023-05-02T17:50:46.364Z,7.90
2023-05-02T17:55:52.027Z,7.25
2023-05-02T18:00:56.252Z,6.80
2023-05-02T18:06:00.434Z,20.00
2023-05-02T18:11:06.038Z,16.55
2023-05-02T18:16:10.443Z,10.27
2023-05-02T18:21:22.271Z,8.80
2023-05-02T18:26:27.830Z,5.40
2023-05-02T18:31:32.428Z,5.07
2023-05-02T18:36:36.693Z,11.32
2023-05-02T18:41:42.281Z,8.60
2023-05-02T18:46:46.582Z,10.25
2023-05-02T18:51:51.480Z,14.93
2023-05-02T18:56:57.179Z,24.30
2023-05-02T19:02:01.639Z,10.40
2023-05-02T19:07:05.785Z,10.68
2023-05-02T19:12:11.429Z,14.30
2023-05-02T19:17:15.818Z,13.85
2023-05-02T19:22:22.280Z,13.45
2023-05-02T19:27:27.968Z,13.65
2023-05-02T19:32:32.324Z,14.60
2023-05-02T19:37:36.692Z,13.30
2023-05-02T19:42:42.193Z,23.42
2023-05-02T19:47:47.458Z,25.23
2023-05-02T19:52:51.976Z,86.60
2023-05-02T19:57:57.574Z,32.33
2023-05-02T20:03:01.894Z,165.20
2023-05-02T20:08:06.389Z,56.15
2023-05-02T20:13:12.429Z,46.65
2023-05-02T20:18:17.063Z,99.38
2023-05-02T20:23:21.536Z,63.35
2023-05-02T20:28:27.178Z,35.97
2023-05-02T20:33:43.891Z,27.20
2023-05-02T20:38:49.747Z,40.10
2023-05-02T20:43:57.212Z,45.85
2023-05-02T20:49:02.570Z,29.58
2023-05-02T20:54:07.098Z,28.00
2023-05-02T20:59:12.809Z,26.08
2023-05-02T21:04:17.221Z,41.58
2023-05-02T21:09:21.344Z,27.73
2023-05-02T21:14:27.647Z,23.08
2023-05-02T21:19:33.268Z,22.95
2023-05-02T21:24:38.012Z,23.70
2023-05-02T21:29:43.715Z,22.17
2023-05-02T21:34:48.481Z,22.23
2023-05-02T21:39:53.064Z,19.52
2023-05-02T21:44:58.566Z,17.95
2023-05-02T21:50:03.199Z,18.85
2023-05-02T21:55:08.388Z,19.65
2023-05-02T22:00:15.057Z,22.20
2023-05-02T22:05:19.414Z,19.20
2023-05-02T22:10:23.972Z,18.73
2023-05-02T22:15:29.510Z,17.95
2023-05-02T22:20:33.890Z,23.58
2023-05-02T22:25:41.119Z,19.90
2023-05-02T22:30:46.899Z,17.65
2023-05-02T22:35:50.978Z,16.75
2023-05-02T22:40:55.260Z,15.90
2023-05-02T22:46:01.384Z,13.95
2023-05-02T22:51:06.165Z,15.32
2023-05-02T22:56:10.431Z,17.48
2023-05-02T23:01:15.969Z,18.83
2023-05-02T23:06:20.410Z,23.90
2023-05-02T23:11:24.600Z,25.25
2023-05-02T23:16:30.192Z,20.70
2023-05-02T23:21:34.380Z,17.27
2023-05-02T23:26:38.623Z,14.07
2023-05-02T23:31:44.554Z,14.65
2023-05-02T23:36:49.363Z,14.95
2023-05-02T23:41:53.597Z,15.05
2023-05-02T23:46:59.762Z,15.07
2023-05-02T23:52:05.427Z,15.52
2023-05-02T23:57:09.989Z,14.65
